Time,TemperatureF,DewpointF,PressureIn,WindDirection,WindDirectionDegrees,WindSpeedMPH,WindSpeedGustMPH,Humidity,HourlyPrecipIn,Conditions,Clouds,dailyrainin,SoftwareType,DateUTC
2013-04-29 00:00:00,57.7,56.9,30.00,South,174,0.0,7.0,97,0.00,RA,,0.00,WeatherDisplay:10.37,2013-04-29 04:00:00,
2013-04-29 00:10:00,57.6,56.5,30.00,SSW,209,1.0,7.0,96,0.00,OVC,,0.00,WeatherDisplay:10.37,2013-04-29 04:10:00,
2013-04-29 00:20:00,57.5,56.4,30.00,SW,225,0.0,2.0,96,0.00,OVC,,0.00,WeatherDisplay:10.37,2013-04-29 04:20:00,
2013-04-29 00:30:00,57.4,56.3,29.99,SW,226,0.0,3.0,96,0.00,OVC,,0.00,WeatherDisplay:10.37,2013-04-29 04:30:00,
2013-04-29 00:40:00,57.3,56.2,30.00,SW,226,0.0,4.0,96,0.00,OVC,,0.00,WeatherDisplay:10.37,2013-04-29 04:40:00,
2013-04-29 00:50:00,57.3,56.2,30.00,SW,226,0.0,2.0,96,0.00,BKN,,0.00,WeatherDisplay:10.37,2013-04-29 04:50:00,
2013-04-29 01:00:00,57.3,56.2,30.01,SW,226,2.0,5.0,96,0.00,BKN,,0.00,WeatherDisplay:10.37,2013-04-29 05:00:00,
2013-04-29 01:10:00,57.3,56.2,30.01,SSW,206,6.0,12.0,96,0.00,SCT,,0.00,WeatherDisplay:10.37,2013-04-29 05:10:00,
2013-04-29 01:20:00,57.3,56.2,30.01,South,188,3.0,6.0,96,0.00,SCT,,0.00,WeatherDisplay:10.37,2013-04-29 05:20:00,
2013-04-29 01:30:00,57.2,56.1,30.01,SSW,195,0.0,6.0,96,0.00,SCT,,0.00,WeatherDisplay:10.37,2013-04-29 05:30:00,
2013-04-29 01:40:00,57.2,56.1,30.01,SSW,213,2.0,5.0,96,0.00,CLR,,0.00,WeatherDisplay:10.37,2013-04-29 05:40:00,
2013-04-29 01:50:00,57.1,56.0,30.01,SSW,213,2.0,12.0,96,0.00,CLR,,0.00,WeatherDisplay:10.37,2013-04-29 05:50:00,
2013-04-29 02:00:00,57.0,55.9,30.01,South,190,3.0,8.0,96,0.00,CLR,,0.00,WeatherDisplay:10.37,2013-04-29 06:00:00,
2013-04-29 02:10:00,56.9,55.8,30.01,SSW,205,0.0,9.0,96,0.00,SCT,,0.00,WeatherDisplay:10.37,2013-04-29 06:10:00,
2013-04-29 02:20:00,56.9,55.8,30.00,SSW,200,2.0,7.0,96,0.00,SCT,,0.00,WeatherDisplay:10.37,2013-04-29 06:20:00,
2013-04-29 02:30:00,56.9,55.8,30.00,SSW,196,1.0,8.0,96,0.00,SCT,,0.00,WeatherDisplay:10.37,2013-04-29 06:30:00,
2013-04-29 02:40:00,56.9,55.8,30.00,South,178,2.0,7.0,96,0.00,BKN,,0.00,WeatherDisplay:10.37,2013-04-29 06:40:00,
2013-04-29 02:50:00,56.9,55.8,30.00,SW,225,2.0,9.0,96,0.00,SCT,,0.00,WeatherDisplay:10.37,2013-04-29 06:50:00,
2013-04-29 03:00:00,56.9,55.8,30.00,SSW,192,5.0,8.0,96,0.00,SCT,,0.00,WeatherDisplay:10.37,2013-04-29 07:00:00,
2013-04-29 03:10:00,56.9,55.8,30.00,SW,226,3.0,7.0,96,0.00,CLR,,0.00,WeatherDisplay:10.37,2013-04-29 07:10:00,
2013-04-29 03:20:00,56.9,55.8,30.00,SW,220,0.0,7.0,96,0.00,CLR,,0.00,WeatherDisplay:10.37,2013-04-29 07:20:00,
2013-04-29 03:30:00,56.9,55.8,30.01,SW,229,3.0,7.0,96,0.00,CLR,,0.00,WeatherDisplay:10.37,2013-04-29 07:30:00,
2013-04-29 03:40:00,56.9,55.5,30.00,SSW,212,3.0,5.0,95,0.00,SCT,,0.00,WeatherDisplay:10.37,2013-04-29 07:40:00,
2013-04-29 03:50:00,56.9,55.5,30.00,SW,220,5.0,9.0,95,0.00,BKN,,0.00,WeatherDisplay:10.37,2013-04-29 07:50:00,
2013-04-29 04:00:00,57.0,55.6,30.00,SW,217,5.0,8.0,95,0.00,BKN,,0.00,WeatherDisplay:10.37,2013-04-29 08:00:00,
2013-04-29 04:10:00,57.0,55.6,30.01,SSW,208,1.0,7.0,95,0.00,OVC,,0.00,WeatherDisplay:10.37,2013-04-29 08:10:00,
2013-04-29 04:20:00,57.0,55.6,30.01,SW,220,0.0,5.0,95,0.00,OVC,,0.00,WeatherDisplay:10.37,2013-04-29 08:20:00,
2013-04-29 04:30:00,57.0,55.6,30.00,SW,221,1.0,5.0,95,0.00,OVC,,0.00,WeatherDisplay:10.37,2013-04-29 08:30:00,
2013-04-29 04:40:00,57.0,55.6,30.00,WSW,247,0.0,3.0,95,0.00,OVC,,0.00,WeatherDisplay:10.37,2013-04-29 08:40:00,
2013-04-29 04:50:00,56.9,55.5,30.00,SW,235,1.0,4.0,95,0.00,OVC,,0.00,WeatherDisplay:10.37,2013-04-29 08:50:00,
2013-04-29 05:00:00,56.9,55.5,30.00,SW,214,0.0,3.0,95,0.00,OVC,,0.00,WeatherDisplay:10.37,2013-04-29 09:00:00,
2013-04-29 05:10:00,56.9,55.5,30.00,SW,214,0.0,0.0,95,0.00,SCT,,0.00,WeatherDisplay:10.37,2013-04-29 09:10:00,
2013-04-29 05:20:00,56.8,55.4,30.00,SW,214,0.0,2.0,95,0.00,SCT,,0.00,WeatherDisplay:10.37,2013-04-29 09:20:00,
2013-04-29 05:30:00,56.8,55.4,29.99,SW,214,0.0,0.0,95,0.00,SCT,,0.00,WeatherDisplay:10.37,2013-04-29 09:30:00,
2013-04-29 05:40:00,56.7,55.3,29.99,SSE,162,1.0,5.0,95,0.00,BKN,,0.00,WeatherDisplay:10.37,2013-04-29 09:40:00,
2013-04-29 05:49:00,56.7,55.3,29.99,SSE,163,0.0,5.0,95,0.00,OVC,,0.00,WeatherDisplay:10.37,2013-04-29 09:49:00,
2013-04-29 06:00:00,56.6,55.2,29.99,SW,215,0.0,5.0,95,0.00,OVC,,0.00,WeatherDisplay:10.37,2013-04-29 10:00:00,
2013-04-29 06:09:00,56.4,55.0,29.99,SW,228,0.0,4.0,95,0.00,OVC,,0.00,WeatherDisplay:10.37,2013-04-29 10:09:00,
2013-04-29 06:19:00,56.2,54.8,30.00,SW,228,0.0,0.0,95,0.00,OVC,,0.00,WeatherDisplay:10.37,2013-04-29 10:19:00,
2013-04-29 06:30:00,56.2,55.1,30.00,SW,228,0.0,2.0,96,0.00,OVC,,0.00,WeatherDisplay:10.37,2013-04-29 10:30:00,
2013-04-29 06:40:00,56.1,55.0,30.00,SW,228,0.0,0.0,96,0.00,OVC,,0.00,WeatherDisplay:10.37,2013-04-29 10:40:00,
2013-04-29 06:50:00,56.1,55.0,30.00,SW,228,1.0,2.0,96,0.00,OVC,,0.00,WeatherDisplay:10.37,2013-04-29 10:50:00,
2013-04-29 07:01:00,56.2,55.1,30.01,SW,228,0.0,2.0,96,0.00,OVC,,0.00,WeatherDisplay:10.37,2013-04-29 11:01:00,
2013-04-29 07:10:00,56.3,55.2,30.01,SW,228,0.0,3.0,96,0.00,OVC,,0.00,WeatherDisplay:10.37,2013-04-29 11:10:00,
2013-04-29 07:20:00,56.4,55.3,30.02,SW,217,1.0,3.0,96,0.00,OVC,,0.00,WeatherDisplay:10.37,2013-04-29 11:20:00,
2013-04-29 07:31:00,56.5,55.4,30.02,SW,236,2.0,3.0,96,0.00,OVC,,0.00,WeatherDisplay:10.37,2013-04-29 11:31:00,
2013-04-29 07:40:00,56.7,55.6,30.03,SW,236,0.0,2.0,96,0.00,OVC,,0.00,WeatherDisplay:10.37,2013-04-29 11:40:00,
2013-04-29 07:50:00,56.7,55.6,30.03,SW,236,0.0,4.0,96,0.00,OVC,,0.00,WeatherDisplay:10.37,2013-04-29 11:50:00,
2013-04-29 08:01:00,56.9,55.7,30.03,SW,236,0.0,3.0,96,0.00,OVC,,0.00,WeatherDisplay:10.37,2013-04-29 12:01:00,
2013-04-29 08:10:00,56.9,55.8,30.03,SW,236,0.0,2.0,96,0.00,OVC,,0.00,WeatherDisplay:10.37,2013-04-29 12:10:00,
2013-04-29 08:20:00,57.1,56.0,30.03,SW,236,1.0,3.0,96,0.00,OVC,,0.00,WeatherDisplay:10.37,2013-04-29 12:20:00,
2013-04-29 08:31:00,57.2,55.8,30.04,South,191,1.0,6.0,95,0.00,OVC,,0.00,WeatherDisplay:10.37,2013-04-29 12:31:00,
2013-04-29 08:40:00,57.3,55.9,30.04,South,177,0.0,5.0,95,0.00,OVC,,0.00,WeatherDisplay:10.37,2013-04-29 12:40:00,
2013-04-29 08:50:00,57.5,56.1,30.04,South,187,1.0,4.0,95,0.00,OVC,,0.00,WeatherDisplay:10.37,2013-04-29 12:50:00,
2013-04-29 09:01:00,57.6,56.2,30.04,South,190,2.0,4.0,95,0.00,OVC,,0.00,WeatherDisplay:10.37,2013-04-29 13:01:00,
2013-04-29 09:10:00,57.8,56.4,30.04,South,183,0.0,5.0,95,0.00,OVC,,0.00,WeatherDisplay:10.37,2013-04-29 13:10:00,
2013-04-29 09:20:00,58.1,56.3,30.04,SSW,193,2.0,5.0,94,0.00,OVC,,0.00,WeatherDisplay:10.37,2013-04-29 13:20:00,
2013-04-29 09:31:00,58.4,56.6,30.04,SSE,163,1.0,5.0,94,0.00,OVC,,0.00,WeatherDisplay:10.37,2013-04-29 13:31:00,
2013-04-29 09:40:00,58.7,57.0,30.04,SSE,150,1.0,4.0,94,0.00,OVC,,0.00,WeatherDisplay:10.37,2013-04-29 13:40:00,
2013-04-29 09:50:00,59.0,57.0,30.04,SSE,157,2.0,6.0,93,0.00,OVC,,0.00,WeatherDisplay:10.37,2013-04-29 13:50:00,
2013-04-29 10:01:00,59.4,57.1,30.03,SSE,153,1.0,5.0,92,0.00,OVC,,0.00,WeatherDisplay:10.37,2013-04-29 14:01:00,
2013-04-29 10:10:00,59.7,57.4,30.04,SSE,152,0.0,4.0,92,0.00,OVC,,0.00,WeatherDisplay:10.37,2013-04-29 14:10:00,
2013-04-29 10:20:00,59.8,57.1,30.04,SSW,199,0.0,4.0,91,0.00,OVC,,0.00,WeatherDisplay:10.37,2013-04-29 14:20:00,
2013-04-29 10:31:00,59.8,56.9,30.04,SE,133,0.0,4.0,90,0.00,OVC,,0.00,WeatherDisplay:10.37,2013-04-29 14:31:00,
2013-04-29 10:40:00,59.9,57.3,30.04,ESE,111,0.0,5.0,91,0.00,OVC,,0.00,WeatherDisplay:10.37,2013-04-29 14:40:00,
2013-04-29 10:50:00,60.2,57.0,30.04,SE,139,0.0,4.0,89,0.00,OVC,,0.00,WeatherDisplay:10.37,2013-04-29 14:50:00,
2013-04-29 11:01:00,60.5,58.1,30.04,SE,138,0.0,5.0,92,0.00,OVC,,0.00,WeatherDisplay:10.37,2013-04-29 15:01:00,
2013-04-29 11:10:00,61.4,58.2,30.04,SSE,166,0.0,4.0,89,0.00,OVC,,0.00,WeatherDisplay:10.37,2013-04-29 15:10:00,
2013-04-29 11:20:00,62.5,57.9,30.04,WSW,246,1.0,4.0,85,0.00,OVC,,0.00,WeatherDisplay:10.37,2013-04-29 15:20:00,
2013-04-29 11:31:00,63.6,58.6,30.04,SSE,156,2.0,6.0,84,0.00,OVC,,0.00,WeatherDisplay:10.37,2013-04-29 15:31:00,
2013-04-29 11:40:00,64.6,57.6,30.04,SSE,158,0.0,6.0,78,0.00,OVC,,0.00,WeatherDisplay:10.37,2013-04-29 15:40:00,
2013-04-29 11:50:00,64.9,57.9,30.04,SE,137,1.0,5.0,78,0.00,OVC,,0.00,WeatherDisplay:10.37,2013-04-29 15:50:00,
2013-04-29 12:01:00,65.3,58.3,30.04,SE,140,1.0,4.0,78,0.00,OVC,,0.00,WeatherDisplay:10.37,2013-04-29 16:01:00,
2013-04-29 12:10:00,65.6,57.9,30.04,SSW,199,3.0,6.0,76,0.00,SCT,,0.00,WeatherDisplay:10.37,2013-04-29 16:10:00,
2013-04-29 12:20:00,66.5,58.3,30.04,South,172,1.0,8.0,75,0.00,CLR,,0.00,WeatherDisplay:10.37,2013-04-29 16:20:00,
2013-04-29 12:31:00,66.7,58.1,30.03,SSE,165,1.0,6.0,74,0.00,CLR,,0.00,WeatherDisplay:10.37,2013-04-29 16:31:00,
2013-04-29 12:40:00,66.7,57.8,30.03,SE,133,5.0,9.0,73,0.00,CLR,,0.00,WeatherDisplay:10.37,2013-04-29 16:40:00,
2013-04-29 12:50:00,66.7,57.7,30.03,South,170,2.0,6.0,73,0.00,SCT,,0.00,WeatherDisplay:10.37,2013-04-29 16:50:00,
2013-04-29 13:01:00,67.2,57.5,30.03,ESE,117,3.0,7.0,71,0.00,SCT,,0.00,WeatherDisplay:10.37,2013-04-29 17:01:00,
2013-04-29 13:10:00,68.1,58.4,30.02,SSE,166,3.0,7.0,71,0.00,SCT,,0.00,WeatherDisplay:10.37,2013-04-29 17:10:00,
2013-04-29 13:20:00,68.2,58.8,30.02,SSE,158,5.0,10.0,72,0.00,SCT,,0.00,WeatherDisplay:10.37,2013-04-29 17:20:00,
2013-04-29 13:31:00,67.9,57.8,30.02,SSE,148,5.0,10.0,70,0.00,SCT,,0.00,WeatherDisplay:10.37,2013-04-29 17:31:00,
2013-04-29 13:40:00,68.2,57.2,30.01,SE,144,6.0,9.0,68,0.00,SCT,,0.00,WeatherDisplay:10.37,2013-04-29 17:40:00,
2013-04-29 13:50:00,68.4,58.2,30.00,SSE,158,3.0,9.0,70,0.00,SCT,,0.00,WeatherDisplay:10.37,2013-04-29 17:50:00,
2013-04-29 14:01:00,68.6,58.0,30.00,SE,136,6.0,10.0,69,0.00,SCT,,0.00,WeatherDisplay:10.37,2013-04-29 18:01:00,
2013-04-29 14:10:00,68.3,57.4,30.00,SE,137,6.0,12.0,68,0.00,SCT,,0.00,WeatherDisplay:10.37,2013-04-29 18:10:00,
2013-04-29 14:20:00,68.9,57.9,29.99,South,172,3.0,10.0,68,0.00,SCT,,0.00,WeatherDisplay:10.37,2013-04-29 18:20:00,
2013-04-29 14:31:00,70.3,57.1,29.99,SSW,205,2.0,7.0,63,0.00,SCT,,0.00,WeatherDisplay:10.37,2013-04-29 18:31:00,
2013-04-29 14:40:00,70.3,58.0,29.99,SW,234,1.0,4.0,65,0.00,SCT,,0.00,WeatherDisplay:10.37,2013-04-29 18:40:00,
2013-04-29 14:50:00,70.3,58.9,29.98,ESE,106,0.0,2.0,67,0.00,BKN,,0.00,WeatherDisplay:10.37,2013-04-29 18:50:00,
2013-04-29 15:01:00,70.5,57.7,29.98,NE,38,1.0,4.0,64,0.00,BKN,,0.00,WeatherDisplay:10.37,2013-04-29 19:01:00,
2013-04-29 15:10:00,70.7,57.5,29.98,South,179,1.0,5.0,63,0.00,BKN,,0.00,WeatherDisplay:10.37,2013-04-29 19:10:00,
2013-04-29 15:20:00,71.3,57.2,29.98,WSW,238,0.0,5.0,61,0.00,BKN,,0.00,WeatherDisplay:10.37,2013-04-29 19:20:00,
2013-04-29 15:31:00,72.7,58.5,29.97,East,97,1.0,4.0,61,0.00,BKN,,0.00,WeatherDisplay:10.37,2013-04-29 19:31:00,
2013-04-29 15:40:00,72.5,57.8,29.97,NE,46,1.0,4.0,60,0.00,BKN,,0.00,WeatherDisplay:10.37,2013-04-29 19:40:00,
2013-04-29 15:50:00,71.7,56.6,29.97,SSW,193,0.0,5.0,59,0.00,OVC,,0.00,WeatherDisplay:10.37,2013-04-29 19:50:00,
2013-04-29 16:01:00,71.3,56.7,29.96,SSW,204,2.0,3.0,60,0.00,OVC,,0.00,WeatherDisplay:10.37,2013-04-29 20:01:00,
2013-04-29 16:10:00,71.2,56.6,29.96,South,170,1.0,4.0,60,0.00,BKN,,0.00,WeatherDisplay:10.37,2013-04-29 20:10:00,
2013-04-29 16:20:00,71.1,58.8,29.96,SSE,166,0.0,2.0,65,0.00,BKN,,0.00,WeatherDisplay:10.37,2013-04-29 20:20:00,
2013-04-29 16:31:00,71.1,59.2,29.96,ESE,118,0.0,4.0,66,0.00,BKN,,0.00,WeatherDisplay:10.37,2013-04-29 20:31:00,
2013-04-29 16:40:00,71.3,58.1,29.95,ESE,102,0.0,2.0,63,0.00,OVC,,0.00,WeatherDisplay:10.37,2013-04-29 20:40:00,
2013-04-29 16:50:00,71.5,57.8,29.95,East,96,1.0,3.0,62,0.00,OVC,,0.00,WeatherDisplay:10.37,2013-04-29 20:50:00,
2013-04-29 17:01:00,71.3,58.1,29.94,East,90,1.0,6.0,63,0.00,OVC,,0.00,WeatherDisplay:10.37,2013-04-29 21:01:00,
2013-04-29 17:10:00,71.1,57.0,29.94,ESE,117,1.0,7.0,61,0.00,OVC,,0.00,WeatherDisplay:10.37,2013-04-29 21:10:00,
2013-04-29 17:20:00,71.3,57.2,29.94,SE,124,0.0,4.0,61,0.00,OVC,,0.00,WeatherDisplay:10.37,2013-04-29 21:20:00,
2013-04-29 17:31:00,71.1,56.9,29.93,ESE,123,1.0,4.0,61,0.00,OVC,,0.00,WeatherDisplay:10.37,2013-04-29 21:31:00,
2013-04-29 17:40:00,71.7,56.6,29.93,ESE,123,0.0,4.0,59,0.00,OVC,,0.00,WeatherDisplay:10.37,2013-04-29 21:40:00,
2013-04-29 17:50:00,72.6,57.4,29.93,ESE,123,0.0,1.0,59,0.00,OVC,,0.00,WeatherDisplay:10.37,2013-04-29 21:50:00,
2013-04-29 18:01:00,73.0,58.3,29.93,ESE,123,0.0,1.0,60,0.00,OVC,,0.00,WeatherDisplay:10.37,2013-04-29 22:01:00,
2013-04-29 18:10:00,73.0,57.8,29.94,ESE,123,0.0,1.0,59,0.00,OVC,,0.00,WeatherDisplay:10.37,2013-04-29 22:10:00,
2013-04-29 18:20:00,72.7,59.4,29.93,ESE,123,0.0,1.0,63,0.00,OVC,,0.00,WeatherDisplay:10.37,2013-04-29 22:20:00,
2013-04-29 18:31:00,72.2,58.0,29.93,ESE,123,0.0,1.0,61,0.00,OVC,,0.00,WeatherDisplay:10.37,2013-04-29 22:31:00,
2013-04-29 18:40:00,72.1,60.1,29.93,ESE,123,0.0,1.0,66,0.00,OVC,,0.00,WeatherDisplay:10.37,2013-04-29 22:40:00,
2013-04-29 18:50:00,72.0,59.2,29.93,ESE,123,0.0,0.0,64,0.00,OVC,,0.00,WeatherDisplay:10.37,2013-04-29 22:50:00,
2013-04-29 19:01:00,71.8,59.4,29.93,ESE,123,0.0,0.0,65,0.00,OVC,,0.00,WeatherDisplay:10.37,2013-04-29 23:01:00,
2013-04-29 19:10:00,72.0,59.2,29.93,ESE,123,0.0,0.0,64,0.00,OVC,,0.00,WeatherDisplay:10.37,2013-04-29 23:10:00,
2013-04-29 19:20:00,70.8,60.9,29.93,ESE,123,1.0,2.0,71,0.00,OVC,,0.00,WeatherDisplay:10.37,2013-04-29 23:20:00,
2013-04-29 19:31:00,68.8,60.1,29.93,ESE,123,0.0,2.0,74,0.00,OVC,,0.00,WeatherDisplay:10.37,2013-04-29 23:31:00,
2013-04-29 19:40:00,67.7,59.5,29.93,ESE,123,0.0,0.0,75,0.00,OVC,,0.00,WeatherDisplay:10.37,2013-04-29 23:40:00,
2013-04-29 19:50:00,66.6,59.5,29.93,ESE,123,0.0,0.0,78,0.00,OVC,,0.00,WeatherDisplay:10.37,2013-04-29 23:50:00,
2013-04-29 20:01:00,65.5,58.5,29.93,ESE,123,0.0,0.0,78,0.00,OVC,,0.00,WeatherDisplay:10.37,2013-04-30 00:01:00,
2013-04-29 20:10:00,64.7,58.0,29.93,ESE,121,0.0,0.0,79,0.00,OVC,,0.00,WeatherDisplay:10.37,2013-04-30 00:10:00,
2013-04-29 20:20:00,64.0,58.4,29.94,East,93,0.0,0.0,82,0.00,OVC,,0.00,WeatherDisplay:10.37,2013-04-30 00:20:00,
2013-04-29 20:31:00,63.1,57.9,29.94,NE,54,0.0,0.0,83,0.00,OVC,,0.00,WeatherDisplay:10.37,2013-04-30 00:31:00,
2013-04-29 20:40:00,62.3,57.4,29.94,NE,54,0.0,0.0,84,0.00,OVC,,0.00,WeatherDisplay:10.37,2013-04-30 00:40:00,
2013-04-29 20:50:00,61.6,57.4,29.94,NE,54,0.0,0.0,86,0.00,SCT,,0.00,WeatherDisplay:10.37,2013-04-30 00:50:00,
2013-04-29 21:01:00,60.9,57.0,29.94,NE,54,0.0,0.0,87,0.00,SCT,,0.00,WeatherDisplay:10.37,2013-04-30 01:01:00,
2013-04-29 21:10:00,60.3,56.7,29.95,NE,54,0.0,0.0,88,0.00,CLR,,0.00,WeatherDisplay:10.37,2013-04-30 01:10:00,
2013-04-29 21:20:00,59.8,56.6,29.96,NE,54,0.0,0.0,89,0.00,CLR,,0.00,WeatherDisplay:10.37,2013-04-30 01:20:00,
2013-04-29 21:31:00,59.3,56.7,29.96,NE,54,0.0,0.0,91,0.00,CLR,,0.00,WeatherDisplay:10.37,2013-04-30 01:31:00,
2013-04-29 21:40:00,58.9,56.3,29.97,NE,54,0.0,0.0,91,0.00,CLR,,0.00,WeatherDisplay:10.37,2013-04-30 01:40:00,
2013-04-29 21:50:00,58.5,56.2,29.97,NE,54,0.0,0.0,92,0.00,CLR,,0.00,WeatherDisplay:10.37,2013-04-30 01:50:00,
2013-04-29 22:01:00,58.2,55.9,29.97,NE,54,0.0,0.0,92,0.00,CLR,,0.00,WeatherDisplay:10.37,2013-04-30 02:01:00,
2013-04-29 22:10:00,57.9,55.9,29.98,NE,54,0.0,0.0,93,0.00,CLR,,0.00,WeatherDisplay:10.37,2013-04-30 02:10:00,
2013-04-29 22:20:00,57.6,55.6,29.98,NE,54,0.0,0.0,93,0.00,CLR,,0.00,WeatherDisplay:10.37,2013-04-30 02:20:00,
2013-04-29 22:31:00,57.3,55.3,29.98,NE,54,0.0,0.0,93,0.00,CLR,,0.00,WeatherDisplay:10.37,2013-04-30 02:31:00,
2013-04-29 22:40:00,57.0,55.0,29.98,NE,54,0.0,0.0,93,0.00,CLR,,0.00,WeatherDisplay:10.37,2013-04-30 02:40:00,
2013-04-29 22:50:00,56.7,55.0,29.98,NE,54,0.0,0.0,94,0.00,CLR,,0.00,WeatherDisplay:10.37,2013-04-30 02:50:00,
2013-04-29 23:01:00,56.4,54.7,29.98,NE,54,0.0,0.0,94,0.00,CLR,,0.00,WeatherDisplay:10.37,2013-04-30 03:01:00,
2013-04-29 23:10:00,56.2,54.5,29.98,NE,54,0.0,0.0,94,0.00,CLR,,0.00,WeatherDisplay:10.37,2013-04-30 03:10:00,
2013-04-29 23:20:00,55.9,54.2,29.97,NE,54,0.0,0.0,94,0.00,CLR,,0.00,WeatherDisplay:10.37,2013-04-30 03:20:00,
2013-04-29 23:31:00,55.7,54.3,29.97,NE,54,0.0,0.0,95,0.00,CLR,,0.00,WeatherDisplay:10.37,2013-04-30 03:31:00,
2013-04-29 23:40:00,55.5,54.1,29.97,NE,54,0.0,0.0,95,0.00,CLR,,0.00,WeatherDisplay:10.37,2013-04-30 03:40:00,
2013-04-29 23:50:00,55.3,53.9,29.97,NE,54,0.0,0.0,95,0.00,CLR,,0.00,WeatherDisplay:10.37,2013-04-30 03:50:00,